Time;durP1;ratioP1;P1;durP2;ratioP2;P2;SDS_P1;SDS_P2;PMS_P1;PMS_P2;Temp;Humidity;BMP_temperature;BMP_pressure;BME280_temperature;BME280_humidity;BME280_pressure;Samples;Min_cycle;Max_cycle;Signal;HPM_P1;HPM_P2
2021/10/29 00:01:37;;;;;;;15.73;12.23;;;11.00;99.90;;;;;;4972792;28;20173;-72
2021/10/29 00:04:03;;;;;;;15.57;10.87;;;11.00;99.90;;;;;;4972505;28;20177;-72
2021/10/29 00:06:29;;;;;;;16.53;11.23;;;10.90;99.90;;;;;;4971008;28;20183;-72
2021/10/29 00:08:56;;;;;;;14.70;11.60;;;10.90;99.90;;;;;;4972480;28;20196;-71
2021/10/29 00:11:22;;;;;;;15.40;11.27;;;11.00;99.90;;;;;;4972268;28;20465;-71
2021/10/29 00:13:47;;;;;;;14.57;10.87;;;11.00;99.90;;;;;;4972287;28;20412;-71
2021/10/29 00:16:13;;;;;;;15.37;11.60;;;11.00;99.90;;;;;;4972020;28;20192;-71
2021/10/29 00:18:39;;;;;;;14.20;10.13;;;11.00;99.90;;;;;;4972292;28;20566;-71
2021/10/29 00:21:04;;;;;;;21.30;11.90;;;11.00;99.90;;;;;;4972798;28;20637;-72
2021/10/29 00:23:31;;;;;;;13.77;9.77;;;11.00;99.90;;;;;;4972416;28;20412;-72
2021/10/29 00:25:58;;;;;;;14.63;10.10;;;11.00;99.90;;;;;;4971921;28;20260;-72
2021/10/29 00:28:24;;;;;;;12.87;9.90;;;11.00;99.90;;;;;;4972217;28;20525;-72
2021/10/29 00:30:49;;;;;;;13.03;9.80;;;11.00;99.90;;;;;;4972208;28;20499;-72
2021/10/29 00:33:16;;;;;;;13.90;10.40;;;11.00;99.90;;;;;;4972300;28;20926;-73
2021/10/29 00:35:43;;;;;;;15.60;10.73;;;11.00;99.90;;;;;;4971171;28;20218;-72
2021/10/29 00:38:08;;;;;;;16.20;11.23;;;11.00;99.90;;;;;;4971956;28;20440;-71
2021/10/29 00:40:35;;;;;;;14.30;9.87;;;11.00;99.90;;;;;;4971851;28;20412;-72
2021/10/29 00:43:01;;;;;;;13.90;9.50;;;11.10;99.90;;;;;;4971797;28;20179;-71
2021/10/29 00:45:26;;;;;;;15.27;9.87;;;11.10;99.90;;;;;;4971221;28;20420;-71
2021/10/29 00:47:53;;;;;;;12.10;10.07;;;11.10;99.90;;;;;;4971460;28;20173;-71
2021/10/29 00:50:19;;;;;;;14.93;10.23;;;11.10;99.90;;;;;;4971487;28;20189;-74
2021/10/29 00:52:45;;;;;;;13.30;9.47;;;11.10;99.90;;;;;;4971769;28;20457;-71
2021/10/29 00:55:11;;;;;;;14.07;11.67;;;11.20;99.90;;;;;;4971401;28;20892;-72
2021/10/29 00:57:38;;;;;;;15.77;11.17;;;11.20;99.90;;;;;;4969871;28;20173;-71
2021/10/29 01:00:05;;;;;;;15.88;10.60;;;11.20;99.90;;;;;;4954282;28;20421;-71
2021/10/29 01:02:30;;;;;;;12.53;10.10;;;11.20;99.90;;;;;;4971667;28;20226;-72
2021/10/29 01:04:58;;;;;;;13.30;10.60;;;11.20;99.90;;;;;;4970811;28;20491;-72
2021/10/29 01:07:23;;;;;;;13.40;10.27;;;11.20;99.90;;;;;;4971787;28;20187;-72
2021/10/29 01:09:49;;;;;;;12.73;9.67;;;11.20;99.90;;;;;;4971322;28;20456;-72
2021/10/29 01:12:15;;;;;;;14.10;9.50;;;11.20;99.90;;;;;;4970081;28;20637;-72
2021/10/29 01:14:41;;;;;;;14.17;9.43;;;11.20;99.90;;;;;;4971538;28;20537;-71
2021/10/29 01:17:06;;;;;;;16.00;9.30;;;11.20;99.90;;;;;;4971198;28;20837;-72
2021/10/29 01:19:33;;;;;;;12.40;10.07;;;11.20;99.90;;;;;;4970921;28;20755;-73
2021/10/29 01:22:00;;;;;;;12.10;9.63;;;11.20;99.90;;;;;;4971013;28;20173;-72
2021/10/29 01:24:26;;;;;;;16.80;10.60;;;11.20;99.90;;;;;;4971190;28;20462;-73
2021/10/29 01:26:52;;;;;;;14.40;10.27;;;11.20;99.90;;;;;;4970945;28;20409;-72
2021/10/29 01:29:17;;;;;;;11.00;8.87;;;11.20;99.90;;;;;;4971167;28;20488;-72
2021/10/29 01:31:43;;;;;;;11.43;8.73;;;11.20;99.90;;;;;;4970994;28;20178;-72
2021/10/29 01:34:08;;;;;;;13.23;9.90;;;11.20;99.90;;;;;;4970787;28;20256;-72
2021/10/29 01:36:34;;;;;;;11.87;9.27;;;11.20;99.90;;;;;;4970719;28;20169;-72
2021/10/29 01:39:00;;;;;;;13.07;9.57;;;11.30;99.90;;;;;;4970911;28;20193;-72
2021/10/29 01:41:25;;;;;;;11.40;10.20;;;11.30;99.90;;;;;;4970918;28;20511;-72
2021/10/29 01:43:51;;;;;;;13.53;9.60;;;11.30;99.90;;;;;;4965485;28;20177;-72
2021/10/29 01:46:17;;;;;;;10.90;9.00;;;11.30;99.90;;;;;;4962303;28;20759;-72
2021/10/29 01:48:51;;;;;;;11.07;8.90;;;11.30;99.90;;;;;;4969974;28;20244;-72
2021/10/29 01:51:17;;;;;;;12.63;9.83;;;11.40;99.90;;;;;;4970679;28;20392;-72
2021/10/29 01:53:43;;;;;;;11.33;9.53;;;11.40;99.90;;;;;;4970715;28;20509;-72
2021/10/29 01:56:09;;;;;;;12.47;8.90;;;11.50;99.90;;;;;;4970461;28;20921;-72
2021/10/29 01:58:35;;;;;;;15.50;9.30;;;11.50;99.90;;;;;;4970406;28;20688;-72
2021/10/29 02:01:02;;;;;;;13.20;9.37;;;11.50;99.90;;;;;;4970770;28;20177;-72
2021/10/29 02:03:31;;;;;;;14.13;8.53;;;11.50;99.90;;;;;;4970818;28;20428;-72
2021/10/29 02:05:57;;;;;;;11.83;9.13;;;11.50;99.90;;;;;;4970385;28;20409;-72
2021/10/29 02:08:27;;;;;;;12.30;8.70;;;11.50;99.90;;;;;;4970669;28;20585;-72
2021/10/29 02:10:53;;;;;;;11.27;7.90;;;11.50;99.90;;;;;;4970516;28;20179;-73
2021/10/29 02:13:20;;;;;;;12.50;8.77;;;11.60;99.90;;;;;;4970274;28;21007;-72
2021/10/29 02:15:47;;;;;;;12.53;9.37;;;11.60;99.90;;;;;;4970109;28;20458;-72
2021/10/29 02:18:12;;;;;;;14.73;8.30;;;11.60;99.90;;;;;;4970519;28;20439;-73
2021/10/29 02:20:38;;;;;;;13.00;10.20;;;11.60;99.90;;;;;;4969211;28;20501;-72
2021/10/29 02:23:03;;;;;;;11.33;7.90;;;11.50;99.90;;;;;;4970397;28;20175;-73
2021/10/29 02:25:30;;;;;;;11.30;8.60;;;11.60;99.90;;;;;;4969889;28;20177;-73
2021/10/29 02:27:55;;;;;;;10.10;8.10;;;11.60;99.90;;;;;;4970289;28;20577;-72
2021/10/29 02:30:21;;;;;;;11.20;8.67;;;11.60;99.90;;;;;;4969928;28;20460;-72
2021/10/29 02:32:46;;;;;;;12.33;9.33;;;11.60;99.90;;;;;;4970274;28;20181;-73
2021/10/29 02:35:12;;;;;;;13.20;8.27;;;11.60;99.90;;;;;;4969944;28;20566;-73
2021/10/29 02:37:38;;;;;;;12.97;8.67;;;11.60;99.90;;;;;;4970515;28;20162;-71
2021/10/29 02:40:04;;;;;;;12.83;8.23;;;11.60;99.90;;;;;;4970254;28;20173;-72
2021/10/29 02:42:30;;;;;;;9.53;8.23;;;11.60;99.90;;;;;;4970533;28;20181;-73
2021/10/29 02:44:55;;;;;;;13.30;8.53;;;11.60;99.90;;;;;;4969688;28;20409;-71
2021/10/29 02:47:21;;;;;;;11.60;7.90;;;11.60;99.90;;;;;;4969971;28;20297;-72
2021/10/29 02:49:47;;;;;;;13.10;8.87;;;11.60;99.90;;;;;;4969802;28;20213;-73
2021/10/29 02:52:13;;;;;;;12.33;8.33;;;11.60;99.90;;;;;;4970107;28;20172;-73
2021/10/29 02:54:38;;;;;;;11.97;9.00;;;11.60;99.90;;;;;;4969911;28;20757;-73
2021/10/29 02:57:05;;;;;;;13.63;9.00;;;11.60;99.90;;;;;;4973453;28;20177;-71
2021/10/29 02:59:31;;;;;;;13.53;8.57;;;11.60;99.90;;;;;;4971906;28;20284;-73
2021/10/29 03:01:56;;;;;;;10.67;8.23;;;11.60;99.90;;;;;;4974297;28;20495;-71
2021/10/29 03:04:22;;;;;;;13.57;9.67;;;11.60;99.90;;;;;;4974077;28;20653;-73
2021/10/29 03:06:47;;;;;;;11.47;7.97;;;11.60;99.90;;;;;;4973060;28;20259;-72
2021/10/29 03:09:14;;;;;;;12.10;9.13;;;11.60;99.90;;;;;;4973372;28;20200;-73
2021/10/29 03:11:39;;;;;;;13.60;8.30;;;11.60;99.90;;;;;;4973107;28;20180;-72
2021/10/29 03:14:05;;;;;;;10.70;8.63;;;11.60;99.90;;;;;;4973451;28;20491;-72
2021/10/29 03:16:30;;;;;;;13.17;8.30;;;11.60;99.90;;;;;;4973099;28;20218;-71
2021/10/29 03:18:56;;;;;;;13.17;9.10;;;11.70;99.90;;;;;;4982410;28;20220;-72
2021/10/29 03:21:21;;;;;;;11.20;9.43;;;11.70;99.90;;;;;;4988478;28;20553;-72
2021/10/29 03:23:47;;;;;;;13.13;9.63;;;11.70;99.90;;;;;;4966235;28;20185;-72
2021/10/29 03:26:12;;;;;;;12.20;8.93;;;11.70;99.90;;;;;;4971293;28;20192;-73
2021/10/29 03:28:38;;;;;;;14.20;8.87;;;11.70;99.90;;;;;;4973058;28;20208;-73
2021/10/29 03:31:03;;;;;;;10.57;7.67;;;11.70;99.90;;;;;;4972969;28;20173;-73
2021/10/29 03:33:37;;;;;;;11.23;8.00;;;11.70;99.90;;;;;;4972777;28;20169;-72
2021/10/29 03:36:03;;;;;;;12.73;7.73;;;11.70;99.90;;;;;;4972988;28;20205;-73
2021/10/29 03:41:02;;;;;;;11.57;8.57;;;11.70;99.90;;;;;;4972859;28;20256;-73
2021/10/29 03:46:01;;;;;;;10.03;7.97;;;11.70;99.90;;;;;;4975635;28;20424;-73
2021/10/29 03:48:36;;;;;;;12.27;9.00;;;11.70;99.90;;;;;;4983617;28;20456;-71
2021/10/29 03:51:14;;;;;;;10.03;8.60;;;11.70;99.90;;;;;;4967599;28;20905;-73
2021/10/29 03:56:05;;;;;;;12.37;8.50;;;11.70;99.90;;;;;;4965864;28;20418;-72
2021/10/29 03:58:31;;;;;;;14.60;8.83;;;11.70;99.90;;;;;;4967973;28;20212;-71
2021/10/29 04:00:57;;;;;;;11.53;8.50;;;11.70;99.90;;;;;;4961562;28;20831;-72
2021/10/29 04:03:22;;;;;;;11.47;9.57;;;11.70;99.90;;;;;;4961223;28;20933;-72
2021/10/29 04:05:48;;;;;;;13.27;9.77;;;11.70;99.90;;;;;;4952764;28;20541;-72
2021/10/29 04:08:14;;;;;;;11.17;9.37;;;11.70;99.90;;;;;;4966279;28;20201;-71
2021/10/29 04:10:42;;;;;;;16.27;9.60;;;11.70;99.90;;;;;;4962602;28;20460;-71
2021/10/29 04:13:10;;;;;;;13.40;10.00;;;11.60;99.90;;;;;;4965511;28;20173;-72
2021/10/29 04:15:39;;;;;;;14.53;9.60;;;11.70;99.90;;;;;;4971484;28;20413;-72
2021/10/29 04:18:05;;;;;;;12.47;9.07;;;11.70;99.90;;;;;;4963855;28;20429;-71
2021/10/29 04:20:31;;;;;;;11.37;8.70;;;11.70;99.90;;;;;;4968840;28;20425;-71
2021/10/29 04:22:56;;;;;;;10.07;8.10;;;11.70;99.90;;;;;;4966657;28;20189;-74
2021/10/29 04:25:22;;;;;;;11.60;8.60;;;11.70;99.90;;;;;;4966353;28;20184;-71
2021/10/29 04:27:55;;;;;;;12.07;7.80;;;11.70;99.90;;;;;;4967933;28;20252;-72
2021/10/29 04:30:23;;;;;;;12.60;9.10;;;11.70;99.90;;;;;;4965473;28;20201;-73
2021/10/29 04:32:49;;;;;;;8.70;7.60;;;11.70;99.90;;;;;;4934065;28;20440;-74
2021/10/29 04:35:15;;;;;;;12.60;8.90;;;11.80;99.90;;;;;;4948724;28;20513;-71
2021/10/29 04:37:41;;;;;;;10.70;8.03;;;11.80;99.90;;;;;;4961053;28;20427;-71
2021/10/29 04:40:08;;;;;;;10.70;8.27;;;11.70;99.90;;;;;;4963127;28;20453;-72
2021/10/29 04:42:35;;;;;;;10.20;8.27;;;11.70;99.90;;;;;;4959307;28;21014;-73
2021/10/29 04:45:02;;;;;;;14.67;8.63;;;11.80;99.90;;;;;;4956724;28;20938;-73
2021/10/29 04:47:28;;;;;;;13.53;9.67;;;11.80;99.90;;;;;;4947697;28;20913;-72
2021/10/29 04:49:54;;;;;;;11.57;8.80;;;11.80;99.90;;;;;;4948166;28;20480;-72
2021/10/29 04:52:19;;;;;;;8.83;7.90;;;11.80;99.90;;;;;;4948286;28;20256;-72
2021/10/29 04:54:45;;;;;;;10.90;8.67;;;11.80;99.90;;;;;;4954001;28;20233;-71
2021/10/29 04:57:10;;;;;;;9.70;7.90;;;11.80;99.90;;;;;;4957212;28;20559;-71
2021/10/29 04:59:36;;;;;;;10.50;8.67;;;11.80;99.90;;;;;;4960326;28;20578;-72
2021/10/29 05:02:02;;;;;;;10.50;8.20;;;11.80;99.90;;;;;;4959364;28;20694;-73
2021/10/29 05:04:27;;;;;;;11.23;8.87;;;11.80;99.90;;;;;;4963938;28;20251;-72
2021/10/29 05:06:53;;;;;;;11.30;9.43;;;11.80;99.90;;;;;;4952590;28;20979;-73
2021/10/29 05:09:18;;;;;;;12.20;8.83;;;11.80;99.90;;;;;;4953322;28;20221;-72
2021/10/29 05:11:44;;;;;;;12.13;8.53;;;11.80;99.90;;;;;;4957170;28;20217;-73
2021/10/29 05:14:09;;;;;;;11.37;8.87;;;11.80;99.90;;;;;;4958085;28;21009;-71
2021/10/29 05:16:35;;;;;;;13.20;8.27;;;11.80;99.90;;;;;;4949683;28;20221;-73
2021/10/29 05:19:00;;;;;;;13.03;8.53;;;11.80;99.90;;;;;;4962307;28;20209;-71
2021/10/29 05:21:26;;;;;;;14.43;8.73;;;11.80;99.90;;;;;;4948882;28;20312;-72
2021/10/29 05:23:52;;;;;;;11.10;8.23;;;11.80;99.90;;;;;;4946007;28;20206;-71
2021/10/29 05:26:17;;;;;;;9.70;8.60;;;11.80;99.90;;;;;;4947084;28;20231;-72
2021/10/29 05:28:43;;;;;;;10.60;8.50;;;11.80;99.90;;;;;;4960220;28;20699;-73
2021/10/29 05:31:09;;;;;;;11.40;8.37;;;11.80;99.90;;;;;;4959059;28;20219;-71
2021/10/29 05:33:35;;;;;;;10.70;8.90;;;11.70;99.90;;;;;;4958253;28;20223;-71
2021/10/29 05:36:01;;;;;;;10.20;7.50;;;11.70;99.90;;;;;;4959540;28;20465;-72
2021/10/29 05:38:26;;;;;;;12.93;8.67;;;11.70;99.90;;;;;;4962568;28;20444;-72
2021/10/29 05:40:52;;;;;;;11.77;8.50;;;11.70;99.90;;;;;;4957189;28;20478;-72
2021/10/29 05:43:18;;;;;;;10.27;8.03;;;11.70;99.90;;;;;;4963982;28;20196;-73
2021/10/29 05:45:43;;;;;;;10.90;8.33;;;11.70;99.90;;;;;;4956668;28;20216;-73
2021/10/29 05:48:09;;;;;;;12.23;8.10;;;11.70;99.90;;;;;;4952095;28;20217;-71
2021/10/29 05:50:36;;;;;;;12.33;7.73;;;11.80;99.90;;;;;;4952796;28;20282;-74
2021/10/29 05:53:18;;;;;;;10.83;7.47;;;11.80;99.90;;;;;;4957541;28;20448;-72
2021/10/29 05:55:43;;;;;;;10.03;7.60;;;11.80;99.90;;;;;;4952899;28;20942;-73
2021/10/29 05:58:09;;;;;;;11.43;7.47;;;11.80;99.90;;;;;;4946404;28;20498;-71
2021/10/29 06:00:34;;;;;;;9.57;7.67;;;11.80;99.90;;;;;;4948189;28;20903;-74
2021/10/29 06:03:05;;;;;;;9.73;7.80;;;11.80;99.90;;;;;;4947558;28;20213;-73
2021/10/29 06:05:32;;;;;;;10.60;7.67;;;11.80;99.90;;;;;;4951874;28;20292;-74
2021/10/29 06:07:58;;;;;;;14.23;7.50;;;11.80;99.90;;;;;;4962269;28;20456;-72
2021/10/29 06:10:24;;;;;;;14.07;8.10;;;11.80;99.90;;;;;;4957987;28;20523;-73
2021/10/29 06:12:49;;;;;;;11.90;7.87;;;11.80;99.90;;;;;;4966442;28;20445;-72
2021/10/29 06:15:16;;;;;;;10.87;7.50;;;11.80;99.90;;;;;;4965244;28;20216;-73
2021/10/29 06:17:43;;;;;;;10.37;7.70;;;11.80;99.90;;;;;;4969654;28;20223;-72
2021/10/29 06:20:10;;;;;;;10.03;7.20;;;11.80;99.90;;;;;;4962465;28;20453;-73
2021/10/29 06:22:43;;;;;;;9.33;7.37;;;11.80;99.90;;;;;;4952060;28;20511;-74
2021/10/29 06:25:13;;;;;;;12.57;7.27;;;11.80;99.90;;;;;;4968774;28;20436;-73
2021/10/29 06:30:05;;;;;;;12.50;7.63;;;11.80;99.90;;;;;;4976882;28;20476;-73
2021/10/29 06:32:30;;;;;;;10.17;8.17;;;11.80;99.90;;;;;;4979704;28;20209;-74
2021/10/29 06:34:56;;;;;;;9.67;7.13;;;11.80;99.90;;;;;;4976626;28;20452;-74
2021/10/29 06:37:22;;;;;;;10.10;6.90;;;11.80;99.90;;;;;;4968877;28;20201;-75
2021/10/29 06:39:50;;;;;;;8.57;7.50;;;11.80;99.90;;;;;;4965688;28;20437;-74
2021/10/29 06:42:24;;;;;;;9.40;7.30;;;11.80;99.90;;;;;;4949616;28;20548;-74
2021/10/29 06:45:11;;;;;;;11.40;8.30;;;11.80;99.90;;;;;;4949815;28;20436;-75
2021/10/29 06:47:45;;;;;;;7.90;7.10;;;11.90;99.90;;;;;;4949277;28;20457;-74
2021/10/29 07:01:17;;;;;;;11.83;8.23;;;11.90;99.90;;;;;;4949116;28;20432;-73
2021/10/29 07:12:02;;;;;;;10.50;8.10;;;11.80;99.90;;;;;;4950230;28;20550;-73
2021/10/29 07:41:50;;;;;;;12.00;8.37;;;12.00;99.90;;;;;;4950751;28;20990;-72
2021/10/29 07:44:18;;;;;;;13.60;8.47;;;12.00;99.90;;;;;;4948843;28;20452;-74
2021/10/29 07:46:44;;;;;;;15.23;9.73;;;12.00;99.90;;;;;;4952102;28;20437;-74
2021/10/29 07:49:10;;;;;;;12.20;8.70;;;12.00;99.90;;;;;;4951087;28;20508;-74
2021/10/29 07:51:39;;;;;;;11.67;8.30;;;12.10;99.90;;;;;;4952338;28;20441;-74
2021/10/29 07:54:08;;;;;;;11.50;9.10;;;12.10;99.90;;;;;;4953270;28;20461;-74
2021/10/29 07:56:34;;;;;;;10.00;8.00;;;12.10;99.90;;;;;;4952048;28;20508;-74
2021/10/29 07:59:00;;;;;;;11.17;8.83;;;12.20;99.90;;;;;;4952721;28;20545;-73
2021/10/29 08:01:26;;;;;;;13.10;8.87;;;12.20;99.90;;;;;;4952148;28;20433;-74
2021/10/29 08:03:51;;;;;;;11.17;8.73;;;12.20;99.90;;;;;;4952196;28;20826;-73
2021/10/29 08:06:34;;;;;;;10.33;8.33;;;12.20;99.90;;;;;;4947934;28;20503;-74
2021/10/29 08:09:10;;;;;;;11.50;8.90;;;12.30;99.90;;;;;;4952643;28;20221;-74
2021/10/29 08:11:37;;;;;;;11.87;8.90;;;12.30;99.90;;;;;;4950787;28;20445;-73
2021/10/29 08:14:02;;;;;;;9.77;8.33;;;12.40;99.90;;;;;;4956591;28;20964;-73
2021/10/29 08:16:28;;;;;;;13.63;9.03;;;12.40;99.90;;;;;;4969714;28;20520;-74
2021/10/29 08:18:53;;;;;;;11.07;8.93;;;12.40;99.90;;;;;;4969473;28;20209;-74
2021/10/29 08:21:19;;;;;;;12.83;9.40;;;12.40;99.90;;;;;;4955160;28;20209;-73
2021/10/29 08:23:45;;;;;;;11.63;8.07;;;12.40;99.90;;;;;;4949661;28;20216;-74
2021/10/29 08:26:11;;;;;;;9.90;8.50;;;12.40;99.90;;;;;;4950328;28;20289;-75
2021/10/29 08:28:38;;;;;;;11.67;8.47;;;12.50;99.90;;;;;;4948433;28;20453;-73
2021/10/29 08:31:04;;;;;;;11.80;8.43;;;12.40;99.90;;;;;;4950647;28;20432;-71
2021/10/29 08:33:29;;;;;;;12.80;8.83;;;12.50;99.90;;;;;;4949453;28;20809;-72
2021/10/29 08:35:55;;;;;;;12.33;8.83;;;12.40;99.90;;;;;;4975709;22;20265;-72
2021/10/29 08:38:22;;;;;;;11.97;9.30;;;12.50;99.90;;;;;;4962380;28;20207;-71
2021/10/29 08:40:49;;;;;;;13.90;9.40;;;12.50;99.90;;;;;;4967991;28;20552;-71
2021/10/29 08:43:14;;;;;;;11.73;8.50;;;12.50;99.90;;;;;;4952636;28;20413;-70
2021/10/29 08:45:41;;;;;;;9.97;8.90;;;12.50;99.90;;;;;;4957851;28;20420;-71
2021/10/29 08:48:07;;;;;;;11.90;9.03;;;12.50;99.90;;;;;;4971238;28;20181;-72
2021/10/29 08:50:33;;;;;;;11.20;8.57;;;12.50;99.90;;;;;;4969667;28;20452;-72
2021/10/29 08:52:59;;;;;;;11.67;9.17;;;12.60;99.90;;;;;;4971197;28;20831;-72
2021/10/29 08:55:27;;;;;;;11.47;9.20;;;12.60;99.90;;;;;;4971251;28;20408;-71
2021/10/29 08:57:53;;;;;;;11.40;8.97;;;12.70;99.90;;;;;;4970572;28;20201;-72
2021/10/29 09:00:26;;;;;;;10.47;7.97;;;12.70;99.90;;;;;;4971608;28;20443;-72
2021/10/29 09:03:04;;;;;;;11.10;8.97;;;12.80;99.90;;;;;;4971413;28;20412;-72
2021/10/29 09:05:46;;;;;;;10.80;9.30;;;12.80;99.90;;;;;;4979385;28;20477;-72
2021/10/29 09:33:54;;;;;;;9.00;7.30;;;13.30;99.90;;;;;;4969640;28;20486;-71
2021/10/29 09:36:41;;;;;;;9.87;7.80;;;13.30;99.90;;;;;;4969891;28;20460;-71
2021/10/29 09:39:15;;;;;;;12.60;8.07;;;13.40;99.90;;;;;;4969468;28;20428;-71
2021/10/29 09:41:42;;;;;;;8.63;7.83;;;13.40;99.90;;;;;;4969029;28;20610;-71
2021/10/29 09:44:15;;;;;;;9.73;8.10;;;13.50;99.90;;;;;;4971659;28;20423;-71
2021/10/29 09:46:54;;;;;;;11.23;8.70;;;13.60;99.90;;;;;;4968702;28;20425;-72
2021/10/29 09:49:27;;;;;;;11.33;8.27;;;13.60;99.90;;;;;;4970405;28;20877;-71
2021/10/29 09:52:06;;;;;;;7.63;6.83;;;13.70;99.90;;;;;;4971114;28;20460;-72
2021/10/29 09:54:43;;;;;;;9.50;7.50;;;13.70;99.90;;;;;;4970958;28;20408;-72
2021/10/29 09:57:09;;;;;;;9.33;6.90;;;13.80;99.90;;;;;;4971159;28;20435;-72
2021/10/29 09:59:35;;;;;;;8.33;6.33;;;13.80;99.90;;;;;;4971465;28;20976;-72
2021/10/29 10:02:02;;;;;;;8.73;7.63;;;13.80;99.90;;;;;;4969711;28;20234;-72
2021/10/29 10:04:30;;;;;;;11.83;7.37;;;13.90;99.90;;;;;;4955834;28;20173;-71
2021/10/29 10:06:56;;;;;;;9.70;8.33;;;13.90;99.90;;;;;;4968982;28;20432;-72
2021/10/29 10:09:22;;;;;;;7.67;6.77;;;13.90;99.90;;;;;;4969850;28;20495;-72
2021/10/29 10:11:49;;;;;;;8.73;6.73;;;13.90;99.90;;;;;;4970559;28;20471;-72
2021/10/29 10:14:16;;;;;;;9.37;7.20;;;13.80;99.90;;;;;;4976316;28;20429;-70
2021/10/29 10:16:43;;;;;;;9.83;7.90;;;13.80;99.90;;;;;;4985066;28;20508;-72
2021/10/29 10:19:09;;;;;;;9.47;7.43;;;13.80;99.90;;;;;;4971203;28;20493;-73
2021/10/29 10:21:45;;;;;;;12.20;7.70;;;13.80;99.90;;;;;;4969566;28;20429;-73
2021/10/29 10:24:21;;;;;;;7.97;7.20;;;13.90;99.90;;;;;;4971311;28;20431;-73
2021/10/29 10:41:04;;;;;;;8.40;7.10;;;14.20;99.90;;;;;;4983697;28;20459;-72
2021/10/29 10:46:11;;;;;;;10.20;7.30;;;14.30;99.90;;;;;;4966814;28;20455;-72
2021/10/29 10:49:07;;;;;;;13.73;6.50;;;14.50;99.90;;;;;;4968893;28;20442;-72
2021/10/29 11:10:18;;;;;;;8.10;6.43;;;14.80;99.90;;;;;;4969758;28;20484;-71
2021/10/29 11:12:45;;;;;;;8.27;5.80;;;14.80;99.90;;;;;;4969907;28;20420;-72
2021/10/29 11:15:23;;;;;;;6.30;5.70;;;15.00;99.90;;;;;;4973438;28;20417;-71
2021/10/29 11:18:30;;;;;;;7.60;6.27;;;15.10;99.90;;;;;;4970217;28;20493;-72
2021/10/29 11:21:19;;;;;;;6.60;5.50;;;15.30;99.90;;;;;;4971656;28;20416;-71
2021/10/29 11:24:01;;;;;;;8.90;5.47;;;15.40;99.90;;;;;;4973416;28;20806;-72
2021/10/29 11:26:47;;;;;;;6.10;5.50;;;15.50;99.90;;;;;;4973797;28;20436;-72
2021/10/29 11:29:15;;;;;;;7.10;6.40;;;15.50;99.90;;;;;;4973015;28;20467;-71
2021/10/29 11:31:48;;;;;;;8.90;5.37;;;15.50;99.90;;;;;;4971719;28;20469;-72
2021/10/29 11:34:16;;;;;;;7.17;5.53;;;15.50;99.90;;;;;;4974604;28;20408;-73
2021/10/29 11:36:48;;;;;;;5.70;5.10;;;15.60;99.90;;;;;;4986359;28;20482;-72
2021/10/29 11:39:15;;;;;;;7.13;6.43;;;15.60;99.90;;;;;;4972499;28;20414;-72
2021/10/29 11:41:46;;;;;;;7.47;5.43;;;15.70;99.90;;;;;;4972970;28;20181;-71
2021/10/29 11:44:15;;;;;;;9.30;6.80;;;15.70;99.90;;;;;;4972722;28;20503;-71
2021/10/29 11:46:43;;;;;;;7.80;6.27;;;15.70;99.90;;;;;;4972798;28;20485;-71
2021/10/29 11:49:24;;;;;;;6.10;5.33;;;15.70;99.90;;;;;;4973866;28;20463;-72
2021/10/29 11:51:51;;;;;;;7.03;6.33;;;15.70;99.90;;;;;;4974367;28;20424;-71
2021/10/29 11:54:27;;;;;;;6.40;5.50;;;15.70;99.90;;;;;;4973654;28;20417;-72
2021/10/29 12:07:48;;;;;;;6.50;5.60;;;15.70;99.90;;;;;;4978064;28;20459;-71
2021/10/29 12:10:18;;;;;;;5.50;5.00;;;15.80;99.90;;;;;;4987684;28;20466;-71
2021/10/29 12:12:46;;;;;;;7.03;5.60;;;15.90;99.90;;;;;;5003906;28;20416;-72
2021/10/29 12:15:17;;;;;;;7.60;5.60;;;15.90;99.90;;;;;;4994642;28;20425;-72
2021/10/29 12:18:00;;;;;;;6.37;5.60;;;16.00;99.90;;;;;;4975104;28;20433;-72
2021/10/29 12:20:40;;;;;;;6.20;5.23;;;16.00;99.90;;;;;;4989055;28;20452;-71
2021/10/29 12:23:13;;;;;;;5.90;5.27;;;16.00;99.90;;;;;;4973099;28;20849;-72
2021/10/29 13:04:09;;;;;;;6.00;4.87;;;16.00;99.90;;;;;;4970989;28;20795;-72
2021/10/29 13:06:47;;;;;;;6.78;5.50;;;16.10;99.90;;;;;;4970429;28;21003;-72
2021/10/29 13:09:35;;;;;;;7.80;5.90;;;16.10;99.90;;;;;;4973348;28;20207;-72
2021/10/29 13:12:29;;;;;;;5.80;5.30;;;16.10;99.90;;;;;;4986046;28;20381;-71
2021/10/29 13:15:00;;;;;;;5.70;4.60;;;16.10;99.90;;;;;;4982849;28;20448;-72
2021/10/29 13:17:31;;;;;;;4.90;4.40;;;16.20;99.90;;;;;;4983554;28;20511;-72
2021/10/29 13:20:19;;;;;;;6.60;5.57;;;16.20;99.90;;;;;;4976455;28;20393;-72
2021/10/29 13:36:20;;;;;;;5.63;4.70;;;16.40;99.90;;;;;;4970962;28;20584;-71
2021/10/29 13:53:05;;;;;;;4.47;3.97;;;16.90;99.90;;;;;;4971276;28;20412;-72
2021/10/29 13:55:28;;;;;;;4.07;3.77;;;17.00;99.90;;;;;;4973134;28;20960;-73
2021/10/29 13:58:07;;;;;;;7.63;4.03;;;17.20;99.90;;;;;;4971031;28;20438;-72
2021/10/29 14:03:25;;;;;;;6.80;4.40;;;17.30;99.90;;;;;;4970571;28;20881;-72
2021/10/29 14:17:04;;;;;;;5.30;3.80;;;17.50;99.90;;;;;;4970426;28;20431;-73
2021/10/29 14:35:26;;;;;;;4.50;3.93;;;17.30;99.90;;;;;;4970805;28;20817;-72
2021/10/29 14:43:28;;;;;;;4.03;3.63;;;17.30;99.90;;;;;;5053992;28;20404;-74
2021/10/29 15:18:04;;;;;;;6.33;4.30;;;16.30;99.90;;;;;;5075509;28;20864;-74
2021/10/29 15:33:46;;;;;;;5.20;4.13;;;16.10;99.90;;;;;;5075428;28;20754;-74
2021/10/29 15:41:44;;;;;;;11.53;4.33;;;15.90;99.90;;;;;;5074770;28;20911;-75
2021/10/29 15:44:17;;;;;;;5.30;4.60;;;15.90;99.90;;;;;;5075353;28;20746;-75
2021/10/29 15:46:47;;;;;;;5.13;4.63;;;15.80;99.90;;;;;;5074517;28;20420;-74
2021/10/29 15:51:40;;;;;;;5.10;4.60;;;15.80;99.90;;;;;;5074960;28;20427;-75
2021/10/29 15:54:09;;;;;;;5.17;4.67;;;15.70;99.90;;;;;;5074826;28;20409;-75
2021/10/29 16:01:55;;;;;;;5.23;4.50;;;15.60;99.90;;;;;;5074792;28;20418;-74
2021/10/29 16:18:02;;;;;;;6.20;4.80;;;15.40;99.90;;;;;;5086455;28;20423;-74
2021/10/29 16:20:28;;;;;;;8.43;6.10;;;15.40;99.90;;;;;;5087635;28;20396;-74
2021/10/29 16:22:56;;;;;;;4.70;4.27;;;15.30;99.90;;;;;;5081419;28;20434;-74
2021/10/29 16:25:28;;;;;;;8.23;4.30;;;15.30;99.90;;;;;;5092206;28;20154;-74
2021/10/29 16:30:23;;;;;;;5.00;4.43;;;15.20;99.90;;;;;;5075590;28;20492;-74
2021/10/29 16:35:18;;;;;;;5.17;4.67;;;15.20;99.90;;;;;;5075019;28;20436;-74
2021/10/29 16:37:44;;;;;;;5.20;4.70;;;15.10;99.90;;;;;;5075338;28;20511;-74
2021/10/29 16:40:11;;;;;;;6.07;4.73;;;15.10;99.90;;;;;;5058321;28;20455;-74
2021/10/29 16:42:37;;;;;;;5.20;4.70;;;15.10;99.90;;;;;;5074373;28;20407;-74
2021/10/29 16:45:04;;;;;;;8.03;4.87;;;15.00;99.90;;;;;;5073050;28;20915;-74
2021/10/29 16:47:30;;;;;;;5.83;4.67;;;15.00;99.90;;;;;;5055195;28;20858;-75
2021/10/29 16:49:57;;;;;;;7.77;5.07;;;15.00;99.90;;;;;;5073238;28;20524;-74
2021/10/29 16:52:22;;;;;;;6.90;4.83;;;15.00;99.90;;;;;;5054867;28;20428;-75
2021/10/29 16:54:48;;;;;;;6.07;5.30;;;15.00;99.90;;;;;;5072720;28;21023;-75
2021/10/29 16:57:14;;;;;;;5.37;4.87;;;14.90;99.90;;;;;;5072901;28;20642;-74
2021/10/29 16:59:40;;;;;;;7.40;4.70;;;14.90;99.90;;;;;;5072838;28;20169;-75
2021/10/29 17:02:06;;;;;;;6.33;4.93;;;14.90;99.90;;;;;;5072886;28;20414;-73
2021/10/29 17:04:31;;;;;;;6.43;5.45;;;14.90;99.90;;;;;;5072907;28;20407;-75
2021/10/29 17:06:57;;;;;;;5.77;4.77;;;14.90;99.90;;;;;;5072938;28;20189;-74
2021/10/29 17:09:23;;;;;;;7.23;5.17;;;14.90;99.90;;;;;;5055137;28;20301;-74
2021/10/29 17:11:48;;;;;;;5.40;4.90;;;14.80;99.90;;;;;;5073355;28;20169;-75
2021/10/29 17:14:14;;;;;;;5.27;4.60;;;14.90;99.90;;;;;;5073180;28;20503;-74
2021/10/29 17:16:39;;;;;;;6.80;5.03;;;14.80;99.90;;;;;;5072841;28;20323;-75
2021/10/29 17:19:05;;;;;;;6.60;4.87;;;14.80;99.90;;;;;;5072258;28;20184;-75
2021/10/29 17:21:31;;;;;;;6.00;5.33;;;14.80;99.90;;;;;;5073013;28;20166;-75
2021/10/29 17:23:56;;;;;;;6.10;5.50;;;14.80;99.90;;;;;;5073020;28;20193;-75
2021/10/29 17:26:22;;;;;;;6.70;5.67;;;14.80;99.90;;;;;;5072566;28;20215;-74
2021/10/29 17:28:47;;;;;;;6.00;5.40;;;14.80;99.90;;;;;;5072639;28;20315;-75
2021/10/29 17:31:13;;;;;;;7.73;5.70;;;14.80;99.90;;;;;;5072773;28;20181;-74
2021/10/29 17:33:38;;;;;;;7.80;5.70;;;14.80;99.90;;;;;;5072620;28;20173;-75
2021/10/29 17:36:05;;;;;;;6.40;5.40;;;14.80;99.90;;;;;;5072453;28;20262;-75
2021/10/29 17:38:31;;;;;;;6.60;5.90;;;14.80;99.90;;;;;;5072454;28;20232;-75
2021/10/29 17:40:56;;;;;;;5.80;4.90;;;14.80;99.90;;;;;;5054722;28;20818;-75
2021/10/29 17:43:22;;;;;;;6.00;5.40;;;14.80;99.90;;;;;;5072583;28;20248;-75
2021/10/29 17:45:50;;;;;;;6.53;5.43;;;14.90;99.90;;;;;;5072260;28;20300;-75
2021/10/29 17:48:16;;;;;;;6.27;5.00;;;14.80;99.90;;;;;;5072815;28;20276;-75
2021/10/29 17:50:41;;;;;;;7.07;5.93;;;14.80;99.90;;;;;;5073419;28;20597;-75
2021/10/29 17:53:07;;;;;;;8.60;5.87;;;14.90;99.90;;;;;;5072713;28;20165;-74